Portland, Texas
Current Conditions -  °F | °C
As of 3:35 AM on Monday 24 Nov 2014 (Local Time) from KTFP Reporting Station
Clear Clear  
Wind Chill: 16°   Ceiling: Unl
Heat Index: 16°   Visibility: 10mi
Dew Point:   Wind: 18mph
Humidity: 63%   Direction: 10°N
Pressure: 29.84"   Gusts: NA
Location:  27.88°N, 97.32°W
Report Text: KTFP 240935Z AUTO 01016KT 10SM CLR 16/09 A2984 RMK AO2 T01620091
Loading
Personal Weather Stations






























Interactive Weather Map New forecast layout! Learn more

10-Day Weather Forecast

Advertisements
Track Severe Weather on mobile